sensor_id;sensor_type;location;lat;lon;timestamp;P1;durP1;ratioP1;P2;durP2;ratioP2
37885;SDS011;23726;52.520;13.434;2022-12-10T00:01:11;19.77;;;12.63;;
37885;SDS011;23726;52.520;13.434;2022-12-10T00:03:39;17.80;;;12.85;;
37885;SDS011;23726;52.520;13.434;2022-12-10T00:06:05;19.67;;;12.65;;
37885;SDS011;23726;52.520;13.434;2022-12-10T00:08:35;17.52;;;11.65;;
37885;SDS011;23726;52.520;13.434;2022-12-10T00:11:04;16.50;;;11.75;;
37885;SDS011;23726;52.520;13.434;2022-12-10T00:13:32;17.70;;;12.38;;
37885;SDS011;23726;52.520;13.434;2022-12-10T00:16:02;18.40;;;13.20;;
37885;SDS011;23726;52.520;13.434;2022-12-10T00:18:30;16.65;;;12.60;;
37885;SDS011;23726;52.520;13.434;2022-12-10T00:20:56;17.75;;;13.13;;
37885;SDS011;23726;52.520;13.434;2022-12-10T00:23:22;17.65;;;12.93;;
37885;SDS011;23726;52.520;13.434;2022-12-10T00:25:49;17.52;;;12.25;;
37885;SDS011;23726;52.520;13.434;2022-12-10T00:28:14;19.77;;;12.32;;
37885;SDS011;23726;52.520;13.434;2022-12-10T00:30:40;17.25;;;12.68;;
37885;SDS011;23726;52.520;13.434;2022-12-10T00:33:06;18.00;;;12.70;;
37885;SDS011;23726;52.520;13.434;2022-12-10T00:35:34;18.65;;;12.30;;
37885;SDS011;23726;52.520;13.434;2022-12-10T00:38:01;16.97;;;12.20;;
37885;SDS011;23726;52.520;13.434;2022-12-10T00:40:27;16.33;;;12.23;;
37885;SDS011;23726;52.520;13.434;2022-12-10T00:42:53;17.88;;;12.60;;
37885;SDS011;23726;52.520;13.434;2022-12-10T00:45:19;20.67;;;13.00;;
37885;SDS011;23726;52.520;13.434;2022-12-10T00:47:45;16.33;;;12.63;;
37885;SDS011;23726;52.520;13.434;2022-12-10T00:50:11;17.23;;;11.90;;
37885;SDS011;23726;52.520;13.434;2022-12-10T00:52:36;19.92;;;13.70;;
37885;SDS011;23726;52.520;13.434;2022-12-10T00:55:02;18.63;;;12.82;;
37885;SDS011;23726;52.520;13.434;2022-12-10T00:57:28;16.52;;;11.90;;
37885;SDS011;23726;52.520;13.434;2022-12-10T00:59:53;18.90;;;12.75;;
37885;SDS011;23726;52.520;13.434;2022-12-10T01:02:19;18.48;;;13.13;;
37885;SDS011;23726;52.520;13.434;2022-12-10T01:04:45;19.75;;;12.95;;
37885;SDS011;23726;52.520;13.434;2022-12-10T01:07:11;16.35;;;12.23;;
37885;SDS011;23726;52.520;13.434;2022-12-10T01:09:38;18.10;;;12.70;;
37885;SDS011;23726;52.520;13.434;2022-12-10T01:12:04;18.42;;;12.93;;
37885;SDS011;23726;52.520;13.434;2022-12-10T01:14:31;18.27;;;12.13;;
37885;SDS011;23726;52.520;13.434;2022-12-10T01:16:59;15.43;;;11.77;;
37885;SDS011;23726;52.520;13.434;2022-12-10T01:19:29;17.20;;;12.25;;
37885;SDS011;23726;52.520;13.434;2022-12-10T01:21:56;17.00;;;12.35;;
37885;SDS011;23726;52.520;13.434;2022-12-10T01:24:22;17.08;;;13.27;;
37885;SDS011;23726;52.520;13.434;2022-12-10T01:26:50;16.60;;;11.85;;
37885;SDS011;23726;52.520;13.434;2022-12-10T01:29:16;14.93;;;11.23;;
37885;SDS011;23726;52.520;13.434;2022-12-10T01:31:43;17.33;;;12.00;;
37885;SDS011;23726;52.520;13.434;2022-12-10T01:34:17;16.27;;;11.77;;
37885;SDS011;23726;52.520;13.434;2022-12-10T01:36:48;18.70;;;13.30;;
37885;SDS011;23726;52.520;13.434;2022-12-10T01:39:16;14.63;;;11.55;;
37885;SDS011;23726;52.520;13.434;2022-12-10T01:41:51;15.50;;;11.65;;
37885;SDS011;23726;52.520;13.434;2022-12-10T01:46:48;16.52;;;11.75;;
37885;SDS011;23726;52.520;13.434;2022-12-10T01:49:19;17.90;;;12.75;;
37885;SDS011;23726;52.520;13.434;2022-12-10T01:51:50;17.33;;;12.38;;
37885;SDS011;23726;52.520;13.434;2022-12-10T01:54:22;16.70;;;11.65;;
37885;SDS011;23726;52.520;13.434;2022-12-10T01:57:00;15.52;;;11.43;;
37885;SDS011;23726;52.520;13.434;2022-12-10T01:59:26;18.10;;;12.45;;
37885;SDS011;23726;52.520;13.434;2022-12-10T02:04:51;17.33;;;11.85;;
37885;SDS011;23726;52.520;13.434;2022-12-10T02:10:39;17.45;;;12.02;;
37885;SDS011;23726;52.520;13.434;2022-12-10T02:13:40;16.65;;;11.32;;
37885;SDS011;23726;52.520;13.434;2022-12-10T02:16:14;16.08;;;11.43;;
37885;SDS011;23726;52.520;13.434;2022-12-10T02:21:22;17.58;;;11.68;;
37885;SDS011;23726;52.520;13.434;2022-12-10T02:23:54;19.05;;;11.55;;
37885;SDS011;23726;52.520;13.434;2022-12-10T02:29:15;17.38;;;12.18;;
37885;SDS011;23726;52.520;13.434;2022-12-10T02:31:44;18.20;;;12.20;;
37885;SDS011;23726;52.520;13.434;2022-12-10T02:34:13;15.25;;;11.05;;
37885;SDS011;23726;52.520;13.434;2022-12-10T02:36:42;16.53;;;11.53;;
37885;SDS011;23726;52.520;13.434;2022-12-10T02:39:12;16.40;;;11.68;;
37885;SDS011;23726;52.520;13.434;2022-12-10T02:41:42;16.40;;;12.27;;
37885;SDS011;23726;52.520;13.434;2022-12-10T02:44:16;16.90;;;12.13;;
37885;SDS011;23726;52.520;13.434;2022-12-10T02:46:44;14.52;;;10.80;;
37885;SDS011;23726;52.520;13.434;2022-12-10T02:49:14;13.90;;;10.77;;
37885;SDS011;23726;52.520;13.434;2022-12-10T02:51:42;16.85;;;11.55;;
37885;SDS011;23726;52.520;13.434;2022-12-10T02:54:32;15.50;;;11.80;;
37885;SDS011;23726;52.520;13.434;2022-12-10T02:57:00;16.73;;;12.13;;
37885;SDS011;23726;52.520;13.434;2022-12-10T03:02:20;19.08;;;11.98;;
37885;SDS011;23726;52.520;13.434;2022-12-10T03:10:11;14.25;;;11.15;;
37885;SDS011;23726;52.520;13.434;2022-12-10T03:13:00;14.10;;;10.82;;
37885;SDS011;23726;52.520;13.434;2022-12-10T03:15:31;14.02;;;10.50;;
37885;SDS011;23726;52.520;13.434;2022-12-10T03:18:01;14.50;;;11.13;;
37885;SDS011;23726;52.520;13.434;2022-12-10T03:20:28;13.27;;;10.20;;
37885;SDS011;23726;52.520;13.434;2022-12-10T03:23:01;14.10;;;10.70;;
37885;SDS011;23726;52.520;13.434;2022-12-10T03:25:29;15.07;;;11.18;;
37885;SDS011;23726;52.520;13.434;2022-12-10T03:27:58;14.43;;;10.38;;
37885;SDS011;23726;52.520;13.434;2022-12-10T03:30:25;15.05;;;11.25;;
37885;SDS011;23726;52.520;13.434;2022-12-10T03:32:52;14.15;;;11.25;;
37885;SDS011;23726;52.520;13.434;2022-12-10T03:35:19;14.82;;;11.07;;
37885;SDS011;23726;52.520;13.434;2022-12-10T03:37:47;13.85;;;10.88;;
37885;SDS011;23726;52.520;13.434;2022-12-10T03:40:14;14.45;;;11.05;;
37885;SDS011;23726;52.520;13.434;2022-12-10T03:42:42;13.98;;;10.07;;
37885;SDS011;23726;52.520;13.434;2022-12-10T03:45:08;14.93;;;11.20;;
37885;SDS011;23726;52.520;13.434;2022-12-10T03:47:34;13.18;;;10.60;;
37885;SDS011;23726;52.520;13.434;2022-12-10T03:50:00;13.85;;;10.82;;
37885;SDS011;23726;52.520;13.434;2022-12-10T03:52:25;15.30;;;10.65;;
37885;SDS011;23726;52.520;13.434;2022-12-10T03:54:51;15.07;;;11.30;;
37885;SDS011;23726;52.520;13.434;2022-12-10T03:57:17;13.82;;;10.57;;
37885;SDS011;23726;52.520;13.434;2022-12-10T03:59:42;13.50;;;11.00;;
37885;SDS011;23726;52.520;13.434;2022-12-10T04:02:08;14.55;;;10.50;;
37885;SDS011;23726;52.520;13.434;2022-12-10T04:04:33;13.52;;;10.82;;
37885;SDS011;23726;52.520;13.434;2022-12-10T04:06:59;14.15;;;10.57;;
37885;SDS011;23726;52.520;13.434;2022-12-10T04:09:25;14.35;;;11.15;;
37885;SDS011;23726;52.520;13.434;2022-12-10T04:11:54;13.57;;;10.75;;
37885;SDS011;23726;52.520;13.434;2022-12-10T04:14:22;14.63;;;10.68;;
37885;SDS011;23726;52.520;13.434;2022-12-10T04:17:06;13.68;;;10.82;;
37885;SDS011;23726;52.520;13.434;2022-12-10T04:19:32;14.32;;;11.88;;
37885;SDS011;23726;52.520;13.434;2022-12-10T04:21:58;12.80;;;10.52;;
37885;SDS011;23726;52.520;13.434;2022-12-10T04:24:42;13.85;;;10.75;;
37885;SDS011;23726;52.520;13.434;2022-12-10T04:27:30;13.38;;;10.40;;
37885;SDS011;23726;52.520;13.434;2022-12-10T04:29:59;13.80;;;10.68;;
37885;SDS011;23726;52.520;13.434;2022-12-10T04:32:26;14.18;;;11.15;;
37885;SDS011;23726;52.520;13.434;2022-12-10T04:34:53;14.38;;;10.68;;
37885;SDS011;23726;52.520;13.434;2022-12-10T04:37:19;14.10;;;10.45;;
37885;SDS011;23726;52.520;13.434;2022-12-10T04:39:45;15.25;;;11.05;;
37885;SDS011;23726;52.520;13.434;2022-12-10T04:42:11;13.75;;;10.82;;
37885;SDS011;23726;52.520;13.434;2022-12-10T04:44:37;13.77;;;10.55;;
37885;SDS011;23726;52.520;13.434;2022-12-10T04:47:03;15.07;;;11.02;;
37885;SDS011;23726;52.520;13.434;2022-12-10T04:49:30;13.52;;;10.70;;
37885;SDS011;23726;52.520;13.434;2022-12-10T04:51:57;15.30;;;10.40;;
37885;SDS011;23726;52.520;13.434;2022-12-10T04:54:23;14.13;;;11.10;;
37885;SDS011;23726;52.520;13.434;2022-12-10T04:56:49;14.27;;;10.60;;
37885;SDS011;23726;52.520;13.434;2022-12-10T04:59:14;12.50;;;10.80;;
37885;SDS011;23726;52.520;13.434;2022-12-10T05:01:40;13.55;;;10.77;;
37885;SDS011;23726;52.520;13.434;2022-12-10T05:04:07;13.57;;;10.82;;
37885;SDS011;23726;52.520;13.434;2022-12-10T05:06:34;13.73;;;10.80;;
37885;SDS011;23726;52.520;13.434;2022-12-10T05:09:00;16.08;;;10.80;;
37885;SDS011;23726;52.520;13.434;2022-12-10T05:11:28;13.55;;;10.60;;
37885;SDS011;23726;52.520;13.434;2022-12-10T05:13:56;12.63;;;9.85;;
37885;SDS011;23726;52.520;13.434;2022-12-10T05:16:24;13.30;;;10.27;;
37885;SDS011;23726;52.520;13.434;2022-12-10T05:18:52;13.27;;;10.47;;
37885;SDS011;23726;52.520;13.434;2022-12-10T05:21:19;13.43;;;10.70;;
37885;SDS011;23726;52.520;13.434;2022-12-10T05:23:47;12.88;;;10.00;;
37885;SDS011;23726;52.520;13.434;2022-12-10T05:26:21;13.70;;;10.55;;
37885;SDS011;23726;52.520;13.434;2022-12-10T05:31:19;12.27;;;9.85;;
37885;SDS011;23726;52.520;13.434;2022-12-10T05:33:49;13.98;;;10.57;;
37885;SDS011;23726;52.520;13.434;2022-12-10T05:36:17;14.20;;;10.73;;
37885;SDS011;23726;52.520;13.434;2022-12-10T05:38:46;14.30;;;11.05;;
37885;SDS011;23726;52.520;13.434;2022-12-10T05:41:13;13.60;;;10.90;;
37885;SDS011;23726;52.520;13.434;2022-12-10T05:43:41;13.55;;;10.48;;
37885;SDS011;23726;52.520;13.434;2022-12-10T05:46:12;13.70;;;11.07;;
37885;SDS011;23726;52.520;13.434;2022-12-10T05:48:40;14.10;;;10.98;;
37885;SDS011;23726;52.520;13.434;2022-12-10T05:51:08;13.40;;;10.73;;
37885;SDS011;23726;52.520;13.434;2022-12-10T05:53:38;12.52;;;9.77;;
37885;SDS011;23726;52.520;13.434;2022-12-10T05:56:09;14.30;;;11.23;;
37885;SDS011;23726;52.520;13.434;2022-12-10T05:58:36;12.60;;;10.63;;
37885;SDS011;23726;52.520;13.434;2022-12-10T06:01:06;13.90;;;11.18;;
37885;SDS011;23726;52.520;13.434;2022-12-10T06:03:36;12.95;;;10.30;;
37885;SDS011;23726;52.520;13.434;2022-12-10T06:06:03;13.02;;;10.05;;
37885;SDS011;23726;52.520;13.434;2022-12-10T06:08:29;12.15;;;9.95;;
37885;SDS011;23726;52.520;13.434;2022-12-10T06:10:55;13.88;;;10.43;;
37885;SDS011;23726;52.520;13.434;2022-12-10T06:13:23;12.88;;;10.32;;
37885;SDS011;23726;52.520;13.434;2022-12-10T06:15:48;14.13;;;10.43;;
37885;SDS011;23726;52.520;13.434;2022-12-10T06:18:14;14.27;;;10.93;;
37885;SDS011;23726;52.520;13.434;2022-12-10T06:20:40;13.95;;;10.38;;
37885;SDS011;23726;52.520;13.434;2022-12-10T06:23:06;13.85;;;11.10;;
37885;SDS011;23726;52.520;13.434;2022-12-10T06:25:32;14.30;;;10.75;;
37885;SDS011;23726;52.520;13.434;2022-12-10T06:27:58;13.48;;;10.85;;
37885;SDS011;23726;52.520;13.434;2022-12-10T06:30:23;13.57;;;10.45;;
37885;SDS011;23726;52.520;13.434;2022-12-10T06:32:50;13.80;;;10.73;;
37885;SDS011;23726;52.520;13.434;2022-12-10T06:35:16;13.30;;;10.65;;
37885;SDS011;23726;52.520;13.434;2022-12-10T06:37:43;14.45;;;10.50;;
37885;SDS011;23726;52.520;13.434;2022-12-10T06:40:09;13.55;;;10.25;;
37885;SDS011;23726;52.520;13.434;2022-12-10T06:42:35;13.02;;;10.38;;
37885;SDS011;23726;52.520;13.434;2022-12-10T06:45:00;12.90;;;10.57;;
37885;SDS011;23726;52.520;13.434;2022-12-10T06:47:26;12.68;;;10.82;;
37885;SDS011;23726;52.520;13.434;2022-12-10T06:49:51;13.80;;;10.88;;
37885;SDS011;23726;52.520;13.434;2022-12-10T06:52:17;12.75;;;10.07;;
37885;SDS011;23726;52.520;13.434;2022-12-10T06:54:42;12.75;;;10.45;;
37885;SDS011;23726;52.520;13.434;2022-12-10T06:57:08;14.52;;;10.90;;
37885;SDS011;23726;52.520;13.434;2022-12-10T06:59:33;13.23;;;10.27;;
37885;SDS011;23726;52.520;13.434;2022-12-10T07:01:59;12.32;;;10.43;;
37885;SDS011;23726;52.520;13.434;2022-12-10T07:04:25;13.43;;;10.90;;
37885;SDS011;23726;52.520;13.434;2022-12-10T07:06:50;13.70;;;10.45;;
37885;SDS011;23726;52.520;13.434;2022-12-10T07:09:16;12.73;;;10.63;;
37885;SDS011;23726;52.520;13.434;2022-12-10T07:11:42;12.50;;;10.82;;
37885;SDS011;23726;52.520;13.434;2022-12-10T07:14:09;13.65;;;10.63;;
37885;SDS011;23726;52.520;13.434;2022-12-10T07:16:41;14.30;;;10.63;;
37885;SDS011;23726;52.520;13.434;2022-12-10T07:19:08;15.05;;;11.23;;
37885;SDS011;23726;52.520;13.434;2022-12-10T07:21:35;13.32;;;10.65;;
37885;SDS011;23726;52.520;13.434;2022-12-10T07:24:12;13.48;;;10.77;;
37885;SDS011;23726;52.520;13.434;2022-12-10T07:26:44;15.73;;;11.52;;
37885;SDS011;23726;52.520;13.434;2022-12-10T07:29:15;14.38;;;11.15;;
37885;SDS011;23726;52.520;13.434;2022-12-10T07:31:45;13.90;;;10.80;;
37885;SDS011;23726;52.520;13.434;2022-12-10T07:34:12;14.60;;;10.85;;
37885;SDS011;23726;52.520;13.434;2022-12-10T07:36:38;12.52;;;10.23;;
37885;SDS011;23726;52.520;13.434;2022-12-10T07:39:05;13.98;;;11.02;;
37885;SDS011;23726;52.520;13.434;2022-12-10T07:41:32;14.50;;;11.18;;
37885;SDS011;23726;52.520;13.434;2022-12-10T07:43:58;13.32;;;10.50;;
37885;SDS011;23726;52.520;13.434;2022-12-10T07:46:28;12.13;;;10.20;;
37885;SDS011;23726;52.520;13.434;2022-12-10T07:48:56;12.90;;;10.57;;
37885;SDS011;23726;52.520;13.434;2022-12-10T07:51:24;13.32;;;10.35;;
37885;SDS011;23726;52.520;13.434;2022-12-10T07:53:54;11.65;;;10.23;;
37885;SDS011;23726;52.520;13.434;2022-12-10T07:56:20;15.80;;;11.23;;
37885;SDS011;23726;52.520;13.434;2022-12-10T07:58:47;12.73;;;10.55;;
37885;SDS011;23726;52.520;13.434;2022-12-10T08:01:14;13.68;;;10.82;;
37885;SDS011;23726;52.520;13.434;2022-12-10T08:03:42;12.18;;;10.07;;
37885;SDS011;23726;52.520;13.434;2022-12-10T08:06:09;13.10;;;10.80;;
37885;SDS011;23726;52.520;13.434;2022-12-10T08:08:39;14.05;;;10.85;;
37885;SDS011;23726;52.520;13.434;2022-12-10T08:11:05;16.85;;;10.90;;
37885;SDS011;23726;52.520;13.434;2022-12-10T08:13:32;13.38;;;10.68;;
37885;SDS011;23726;52.520;13.434;2022-12-10T08:16:17;13.32;;;11.20;;
37885;SDS011;23726;52.520;13.434;2022-12-10T08:18:45;12.98;;;10.98;;
37885;SDS011;23726;52.520;13.434;2022-12-10T08:21:12;12.50;;;10.57;;
37885;SDS011;23726;52.520;13.434;2022-12-10T08:23:43;13.32;;;10.98;;
37885;SDS011;23726;52.520;13.434;2022-12-10T08:26:10;12.88;;;10.52;;
37885;SDS011;23726;52.520;13.434;2022-12-10T08:28:38;14.57;;;11.43;;
37885;SDS011;23726;52.520;13.434;2022-12-10T08:31:04;13.55;;;10.98;;
37885;SDS011;23726;52.520;13.434;2022-12-10T08:33:32;13.32;;;10.52;;
37885;SDS011;23726;52.520;13.434;2022-12-10T08:35:59;12.23;;;10.05;;
37885;SDS011;23726;52.520;13.434;2022-12-10T08:38:25;13.77;;;10.70;;
37885;SDS011;23726;52.520;13.434;2022-12-10T08:40:52;13.68;;;10.45;;
37885;SDS011;23726;52.520;13.434;2022-12-10T08:43:17;12.82;;;10.20;;
37885;SDS011;23726;52.520;13.434;2022-12-10T08:45:43;13.30;;;10.75;;
37885;SDS011;23726;52.520;13.434;2022-12-10T08:48:09;14.73;;;10.48;;
37885;SDS011;23726;52.520;13.434;2022-12-10T08:50:35;13.50;;;10.55;;
37885;SDS011;23726;52.520;13.434;2022-12-10T08:53:02;11.48;;;9.60;;
37885;SDS011;23726;52.520;13.434;2022-12-10T08:55:28;13.02;;;10.23;;
37885;SDS011;23726;52.520;13.434;2022-12-10T08:57:53;12.32;;;10.40;;
37885;SDS011;23726;52.520;13.434;2022-12-10T09:00:20;11.40;;;9.95;;
37885;SDS011;23726;52.520;13.434;2022-12-10T09:02:46;15.90;;;10.48;;
37885;SDS011;23726;52.520;13.434;2022-12-10T09:05:11;13.48;;;10.00;;
37885;SDS011;23726;52.520;13.434;2022-12-10T09:07:37;13.18;;;10.50;;
37885;SDS011;23726;52.520;13.434;2022-12-10T09:10:04;14.10;;;11.10;;
37885;SDS011;23726;52.520;13.434;2022-12-10T09:12:32;13.20;;;10.65;;
37885;SDS011;23726;52.520;13.434;2022-12-10T09:14:58;13.13;;;10.52;;
37885;SDS011;23726;52.520;13.434;2022-12-10T09:17:25;13.32;;;10.60;;
37885;SDS011;23726;52.520;13.434;2022-12-10T09:19:51;13.02;;;10.52;;
37885;SDS011;23726;52.520;13.434;2022-12-10T09:22:17;14.63;;;11.43;;
37885;SDS011;23726;52.520;13.434;2022-12-10T09:24:42;13.00;;;10.45;;
37885;SDS011;23726;52.520;13.434;2022-12-10T09:27:08;13.38;;;10.88;;
37885;SDS011;23726;52.520;13.434;2022-12-10T09:29:33;12.77;;;10.38;;
37885;SDS011;23726;52.520;13.434;2022-12-10T09:31:59;14.65;;;11.00;;
37885;SDS011;23726;52.520;13.434;2022-12-10T09:34:25;13.07;;;10.48;;
37885;SDS011;23726;52.520;13.434;2022-12-10T09:36:50;12.55;;;10.43;;
37885;SDS011;23726;52.520;13.434;2022-12-10T09:39:16;13.15;;;10.82;;
37885;SDS011;23726;52.520;13.434;2022-12-10T09:47:29;13.48;;;10.95;;
37885;SDS011;23726;52.520;13.434;2022-12-10T09:50:19;13.10;;;10.85;;
37885;SDS011;23726;52.520;13.434;2022-12-10T09:52:51;13.95;;;10.82;;
37885;SDS011;23726;52.520;13.434;2022-12-10T09:55:22;13.40;;;10.60;;
37885;SDS011;23726;52.520;13.434;2022-12-10T09:57:59;13.13;;;10.93;;
37885;SDS011;23726;52.520;13.434;2022-12-10T10:00:36;13.50;;;11.27;;
37885;SDS011;23726;52.520;13.434;2022-12-10T10:03:06;14.20;;;10.67;;
37885;SDS011;23726;52.520;13.434;2022-12-10T10:05:38;12.48;;;10.55;;
37885;SDS011;23726;52.520;13.434;2022-12-10T10:08:28;13.18;;;10.55;;
37885;SDS011;23726;52.520;13.434;2022-12-10T10:10:56;13.85;;;11.27;;
37885;SDS011;23726;52.520;13.434;2022-12-10T10:13:31;13.20;;;10.35;;
37885;SDS011;23726;52.520;13.434;2022-12-10T10:16:11;14.55;;;11.57;;
37885;SDS011;23726;52.520;13.434;2022-12-10T10:18:54;12.45;;;9.95;;
37885;SDS011;23726;52.520;13.434;2022-12-10T10:21:27;14.40;;;10.80;;
37885;SDS011;23726;52.520;13.434;2022-12-10T10:23:57;13.50;;;10.65;;
37885;SDS011;23726;52.520;13.434;2022-12-10T10:26:24;12.63;;;10.68;;
37885;SDS011;23726;52.520;13.434;2022-12-10T10:28:52;14.05;;;11.18;;
37885;SDS011;23726;52.520;13.434;2022-12-10T10:31:24;13.45;;;11.07;;
37885;SDS011;23726;52.520;13.434;2022-12-10T10:33:53;12.27;;;10.02;;
37885;SDS011;23726;52.520;13.434;2022-12-10T10:36:29;13.57;;;11.55;;
37885;SDS011;23726;52.520;13.434;2022-12-10T10:39:08;12.63;;;10.43;;
37885;SDS011;23726;52.520;13.434;2022-12-10T10:41:38;12.40;;;10.35;;
37885;SDS011;23726;52.520;13.434;2022-12-10T10:44:14;13.55;;;10.90;;
37885;SDS011;23726;52.520;13.434;2022-12-10T10:46:42;12.98;;;11.05;;
37885;SDS011;23726;52.520;13.434;2022-12-10T10:49:27;15.52;;;12.10;;
37885;SDS011;23726;52.520;13.434;2022-12-10T10:51:58;12.73;;;10.80;;
37885;SDS011;23726;52.520;13.434;2022-12-10T10:54:33;12.63;;;10.43;;
37885;SDS011;23726;52.520;13.434;2022-12-10T11:00:31;13.48;;;10.80;;
37885;SDS011;23726;52.520;13.434;2022-12-10T11:02:51;14.40;;;10.60;;
37885;SDS011;23726;52.520;13.434;2022-12-10T11:05:21;14.23;;;11.23;;
37885;SDS011;23726;52.520;13.434;2022-12-10T11:07:59;14.07;;;11.00;;
37885;SDS011;23726;52.520;13.434;2022-12-10T11:10:27;13.27;;;11.02;;
37885;SDS011;23726;52.520;13.434;2022-12-10T11:12:58;14.15;;;10.95;;
37885;SDS011;23726;52.520;13.434;2022-12-10T11:15:34;12.40;;;10.55;;
37885;SDS011;23726;52.520;13.434;2022-12-10T11:21:06;13.55;;;10.68;;
37885;SDS011;23726;52.520;13.434;2022-12-10T11:23:41;14.23;;;11.20;;
37885;SDS011;23726;52.520;13.434;2022-12-10T11:34:52;13.80;;;11.50;;
37885;SDS011;23726;52.520;13.434;2022-12-10T11:48:48;12.48;;;10.68;;
37885;SDS011;23726;52.520;13.434;2022-12-10T11:57:01;13.50;;;11.07;;
37885;SDS011;23726;52.520;13.434;2022-12-10T11:59:42;14.32;;;11.10;;
37885;SDS011;23726;52.520;13.434;2022-12-10T12:05:14;13.18;;;10.77;;
37885;SDS011;23726;52.520;13.434;2022-12-10T12:13:48;12.55;;;10.93;;
37885;SDS011;23726;52.520;13.434;2022-12-10T12:16:40;14.60;;;11.57;;
37885;SDS011;23726;52.520;13.434;2022-12-10T12:19:42;13.40;;;10.60;;
37885;SDS011;23726;52.520;13.434;2022-12-10T12:22:16;13.85;;;10.57;;
37885;SDS011;23726;52.520;13.434;2022-12-10T12:24:48;14.65;;;11.65;;
37885;SDS011;23726;52.520;13.434;2022-12-10T12:27:22;12.60;;;10.75;;
37885;SDS011;23726;52.520;13.434;2022-12-10T12:41:01;13.52;;;10.75;;
37885;SDS011;23726;52.520;13.434;2022-12-10T12:44:03;13.55;;;11.00;;
37885;SDS011;23726;52.520;13.434;2022-12-10T12:46:44;13.73;;;11.27;;
37885;SDS011;23726;52.520;13.434;2022-12-10T12:52:00;13.18;;;10.85;;
37885;SDS011;23726;52.520;13.434;2022-12-10T12:54:50;14.07;;;11.07;;
37885;SDS011;23726;52.520;13.434;2022-12-10T12:57:26;14.85;;;12.00;;
37885;SDS011;23726;52.520;13.434;2022-12-10T13:00:10;14.40;;;11.25;;
37885;SDS011;23726;52.520;13.434;2022-12-10T13:05:36;13.32;;;10.13;;
37885;SDS011;23726;52.520;13.434;2022-12-10T13:10:45;17.70;;;11.77;;
37885;SDS011;23726;52.520;13.434;2022-12-10T13:13:35;18.15;;;13.05;;
37885;SDS011;23726;52.520;13.434;2022-12-10T13:24:20;30.45;;;22.15;;
37885;SDS011;23726;52.520;13.434;2022-12-10T13:29:57;324.83;;;210.88;;
37885;SDS011;23726;52.520;13.434;2022-12-10T13:46:49;246.73;;;156.50;;
37885;SDS011;23726;52.520;13.434;2022-12-10T13:49:25;231.07;;;148.25;;
37885;SDS011;23726;52.520;13.434;2022-12-10T13:52:04;205.75;;;128.05;;
37885;SDS011;23726;52.520;13.434;2022-12-10T13:54:54;222.55;;;140.48;;
37885;SDS011;23726;52.520;13.434;2022-12-10T14:08:23;141.55;;;93.80;;
37885;SDS011;23726;52.520;13.434;2022-12-10T14:10:51;136.77;;;83.22;;
37885;SDS011;23726;52.520;13.434;2022-12-10T14:13:19;140.85;;;86.53;;
37885;SDS011;23726;52.520;13.434;2022-12-10T14:15:51;117.22;;;78.80;;
37885;SDS011;23726;52.520;13.434;2022-12-10T14:18:19;127.43;;;80.10;;
37885;SDS011;23726;52.520;13.434;2022-12-10T14:20:47;125.22;;;80.40;;
37885;SDS011;23726;52.520;13.434;2022-12-10T14:23:34;101.68;;;64.95;;
37885;SDS011;23726;52.520;13.434;2022-12-10T14:26:07;91.13;;;58.13;;
37885;SDS011;23726;52.520;13.434;2022-12-10T14:28:58;87.60;;;54.53;;
37885;SDS011;23726;52.520;13.434;2022-12-10T14:31:27;84.82;;;54.72;;
37885;SDS011;23726;52.520;13.434;2022-12-10T14:33:57;78.53;;;52.53;;
37885;SDS011;23726;52.520;13.434;2022-12-10T14:36:30;89.07;;;55.70;;
37885;SDS011;23726;52.520;13.434;2022-12-10T14:38:59;77.88;;;51.33;;
37885;SDS011;23726;52.520;13.434;2022-12-10T14:41:26;85.53;;;55.65;;
37885;SDS011;23726;52.520;13.434;2022-12-10T14:43:55;80.45;;;51.85;;
37885;SDS011;23726;52.520;13.434;2022-12-10T14:46:27;79.35;;;50.95;;
37885;SDS011;23726;52.520;13.434;2022-12-10T14:48:54;75.75;;;50.90;;
37885;SDS011;23726;52.520;13.434;2022-12-10T14:51:21;86.85;;;51.17;;
37885;SDS011;23726;52.520;13.434;2022-12-10T14:53:48;78.40;;;47.80;;
37885;SDS011;23726;52.520;13.434;2022-12-10T14:56:29;71.05;;;46.78;;
37885;SDS011;23726;52.520;13.434;2022-12-10T15:01:43;90.10;;;50.22;;
37885;SDS011;23726;52.520;13.434;2022-12-10T15:04:13;186.05;;;69.03;;
37885;SDS011;23726;52.520;13.434;2022-12-10T15:06:41;133.10;;;56.17;;
37885;SDS011;23726;52.520;13.434;2022-12-10T15:09:20;166.02;;;61.03;;
37885;SDS011;23726;52.520;13.434;2022-12-10T15:11:56;163.23;;;62.88;;
37885;SDS011;23726;52.520;13.434;2022-12-10T15:14:23;183.55;;;66.22;;
37885;SDS011;23726;52.520;13.434;2022-12-10T15:16:51;173.27;;;64.85;;
37885;SDS011;23726;52.520;13.434;2022-12-10T15:19:24;182.30;;;64.43;;
37885;SDS011;23726;52.520;13.434;2022-12-10T15:21:58;187.55;;;65.50;;
37885;SDS011;23726;52.520;13.434;2022-12-10T15:24:43;163.95;;;61.78;;
37885;SDS011;23726;52.520;13.434;2022-12-10T15:27:19;156.85;;;60.22;;
37885;SDS011;23726;52.520;13.434;2022-12-10T15:29:46;167.40;;;63.55;;
37885;SDS011;23726;52.520;13.434;2022-12-10T15:32:13;155.75;;;62.08;;
37885;SDS011;23726;52.520;13.434;2022-12-10T15:34:58;160.00;;;62.15;;
37885;SDS011;23726;52.520;13.434;2022-12-10T15:37:33;158.52;;;61.17;;
37885;SDS011;23726;52.520;13.434;2022-12-10T15:40:04;144.00;;;58.65;;
37885;SDS011;23726;52.520;13.434;2022-12-10T15:47:46;157.68;;;57.17;;
37885;SDS011;23726;52.520;13.434;2022-12-10T15:50:12;135.10;;;55.03;;
37885;SDS011;23726;52.520;13.434;2022-12-10T15:52:39;141.98;;;54.13;;
37885;SDS011;23726;52.520;13.434;2022-12-10T15:55:05;132.43;;;55.10;;
37885;SDS011;23726;52.520;13.434;2022-12-10T15:57:35;139.55;;;56.08;;
37885;SDS011;23726;52.520;13.434;2022-12-10T16:00:07;141.85;;;55.45;;
37885;SDS011;23726;52.520;13.434;2022-12-10T16:07:36;134.45;;;54.22;;
37885;SDS011;23726;52.520;13.434;2022-12-10T16:10:02;165.98;;;55.25;;
37885;SDS011;23726;52.520;13.434;2022-12-10T16:12:29;163.25;;;57.70;;
37885;SDS011;23726;52.520;13.434;2022-12-10T16:14:56;152.07;;;56.10;;
37885;SDS011;23726;52.520;13.434;2022-12-10T16:17:25;154.75;;;57.33;;
37885;SDS011;23726;52.520;13.434;2022-12-10T16:19:51;151.25;;;56.83;;
37885;SDS011;23726;52.520;13.434;2022-12-10T16:22:18;163.43;;;56.35;;
37885;SDS011;23726;52.520;13.434;2022-12-10T16:24:45;160.50;;;57.50;;
37885;SDS011;23726;52.520;13.434;2022-12-10T16:27:14;153.23;;;55.13;;
37885;SDS011;23726;52.520;13.434;2022-12-10T16:29:42;146.15;;;57.38;;
37885;SDS011;23726;52.520;13.434;2022-12-10T16:32:09;148.93;;;54.95;;
37885;SDS011;23726;52.520;13.434;2022-12-10T16:34:35;149.38;;;53.97;;
37885;SDS011;23726;52.520;13.434;2022-12-10T16:37:01;141.30;;;53.75;;
37885;SDS011;23726;52.520;13.434;2022-12-10T16:39:26;140.57;;;55.03;;
37885;SDS011;23726;52.520;13.434;2022-12-10T16:41:53;143.55;;;52.30;;